Shinkyokuhoumaru — JD2017 — position and weather

sailwx.info

Track history (hours):
 
Tides and Currents Weather Stations Pressure Air Temp Water Temp Dewpoint Dewpoint Depression Visibility Wind Speed Wind Dir Waves Ship Positions

Shinkyokuhoumaru

Last reported at 2017-Oct-09 05:18 UTC. Time now 2017-Oct-17 18:55 UTC.
Position N 34°05' E 135°03'.
Warning: this ship's position is 8 days out of date.

Length 52 m; draft 3 m.

Type: Tanker. MMSI: 430253169.

Date/timePositionNaut miles runAvg speedWind from/ knotsBaromVisibWave heightAir tempDewpointWater temp
2017-Oct-09 05:18N 34°05' E 135°03'311.4
2017-Oct-09 05:00N 34°09' E 135°03'510.8
2017-Oct-09 04:30N 34°14' E 135°03'1511.0
2017-Oct-09 03:07N 34°27' E 135°12'110.8
2017-Oct-09 02:59N 34°28' E 135°14'511.0
2017-Oct-09 02:30N 34°32' E 135°19'510.5
2017-Oct-09 02:00N 34°33' E 135°25'1 0.3
2017-Oct-08 22:28N 34°32' E 135°25'0 0.8
2017-Oct-08 21:58N 34°33' E 135°25'1 2.1
2017-Oct-08 21:30N 34°33' E 135°24'2 0.1
2017-Oct-08 00:07N 34°31' E 135°24'1 2.5
2017-Oct-07 23:54N 34°32' E 135°24'2 4.9
2017-Oct-07 23:31N 34°32' E 135°22'2 2.5
2017-Oct-07 22:44N 34°32' E 135°20'0 0.0
2017-Oct-07 22:08N 34°32' E 135°20'0 0.0
2017-Oct-07 21:44N 34°32' E 135°20'0 0.0
2017-Oct-07 21:20N 34°32' E 135°20'0 0.0
2017-Oct-07 20:56N 34°32' E 135°20'0 0.0
2017-Oct-07 20:26N 34°32' E 135°20'0 0.0
2017-Oct-07 19:50N 34°32' E 135°20'0 0.0
2017-Oct-07 19:26N 34°32' E 135°20'0 0.0
2017-Oct-07 18:56N 34°32' E 135°20'0 0.0
2017-Oct-07 18:26N 34°32' E 135°20'0 0.0
2017-Oct-07 17:56N 34°32' E 135°20'0 0.0
2017-Oct-07 17:20N 34°32' E 135°20'0 0.0
2017-Oct-07 16:56N 34°32' E 135°20'0 0.0
2017-Oct-07 16:25N 34°32' E 135°20'0 0.0
2017-Oct-07 15:49N 34°32' E 135°20'0 0.0
2017-Oct-07 15:25N 34°32' E 135°20'0 0.0
2017-Oct-07 14:55N 34°32' E 135°20'0 0.0
2017-Oct-07 14:25N 34°32' E 135°20'0 0.0
2017-Oct-07 13:55N 34°32' E 135°20'0 0.0
2017-Oct-07 13:25N 34°32' E 135°20'0 0.0
2017-Oct-07 12:01N 34°32' E 135°20'0 0.1
2017-Oct-07 11:55N 34°32' E 135°20'3 6.6
2017-Oct-07 11:30N 34°32' E 135°17'511.1
2017-Oct-07 11:00N 34°34' E 135°11'611.6
2017-Oct-07 10:30N 34°36' E 135°04'  
2017-Oct-04 23:32N 34°37' E 134°57'113.2
2017-Oct-04 23:26N 34°37' E 134°58'613.4
2017-Oct-04 23:00N 34°36' E 135°05'510.7
2017-Oct-04 22:29N 34°34' E 135°11'611.8
2017-Oct-04 22:00N 34°32' E 135°18'2 4.6
2017-Oct-04 21:30N 34°32' E 135°20'0 0.0
2017-Oct-04 21:00N 34°32' E 135°20'0 0.0
2017-Oct-04 20:29N 34°32' E 135°20'0 0.0
2017-Oct-04 20:00N 34°32' E 135°20'0 0.0
2017-Oct-04 19:29N 34°32' E 135°20'0 0.0
2017-Oct-04 19:00N 34°32' E 135°20'0 0.0
2017-Oct-04 18:30N 34°32' E 135°20'0 0.0
2017-Oct-04 18:00N 34°32' E 135°20'0 0.0
2017-Oct-04 17:30N 34°32' E 135°20'0 0.0
2017-Oct-04 17:00N 34°32' E 135°20'0 0.0
2017-Oct-04 16:30N 34°32' E 135°20'0 0.0
2017-Oct-04 16:00N 34°32' E 135°20'0 0.0
2017-Oct-04 15:30N 34°32' E 135°20'0 0.0
2017-Oct-04 15:00N 34°32' E 135°20'0 0.0
2017-Oct-04 14:30N 34°32' E 135°20'0 0.0
2017-Oct-04 14:00N 34°32' E 135°20'0 0.0
2017-Oct-04 13:30N 34°32' E 135°20'0 0.0
2017-Oct-04 13:00N 34°32' E 135°20'0 0.0
2017-Oct-04 12:30N 34°32' E 135°20'0 0.0
2017-Oct-04 12:00N 34°32' E 135°20'0 0.0
2017-Oct-04 11:30N 34°32' E 135°20'0 0.0
2017-Oct-04 11:00N 34°32' E 135°20'0 0.1
2017-Oct-04 10:30N 34°32' E 135°20'0 0.1
2017-Oct-04 10:00N 34°32' E 135°20'0 0.0
2017-Oct-04 09:30N 34°32' E 135°20'0 0.0
2017-Oct-04 09:00N 34°32' E 135°20'0 0.1
2017-Oct-04 08:30N 34°32' E 135°20'4 0.7
2017-Oct-04 03:47N 34°32' E 135°25'2 7.4
2017-Oct-04 03:30N 34°33' E 135°22'2 1.6
2017-Oct-04 02:18N 34°32' E 135°20'0 0.0
2017-Oct-04 02:00N 34°32' E 135°20'5 9.3
2017-Oct-04 01:28N 34°36' E 135°17'3 6.8
2017-Oct-04 01:00N 34°39' E 135°18'0 0.0
2017-Oct-04 00:27N 34°39' E 135°18'0 0.0
2017-Oct-03 23:39N 34°39' E 135°18'0 0.0
2017-Oct-03 23:27N 34°39' E 135°18'0 0.0
2017-Oct-03 22:57N 34°39' E 135°18'0 0.0
2017-Oct-03 22:15N 34°39' E 135°18'0 0.0
2017-Oct-03 21:52N 34°39' E 135°18'0 1.1
2017-Oct-03 21:29N 34°39' E 135°18'4 7.5
2017-Oct-03 21:00N 34°40' E 135°22'5 9.7
2017-Oct-03 20:28N 34°38' E 135°28'1 0.0
2017-Oct-03 01:03N 34°38' E 135°29'0 3.7
2017-Oct-03 00:57N 34°38' E 135°28'3 7.6
2017-Oct-03 00:30N 34°39' E 135°25'1 2.1
2017-Oct-03 00:00N 34°40' E 135°25'0 0.0
2017-Oct-02 23:30N 34°40' E 135°25'1 1.9
2017-Oct-02 23:00N 34°39' E 135°25'5 9.5
2017-Oct-02 22:30N 34°36' E 135°21'510.6
2017-Oct-02 22:00N 34°31' E 135°24'0 0.0
2017-Oct-02 13:43N 34°31' E 135°24'0 0.0
2017-Oct-02 13:19N 34°31' E 135°24'0 0.0
2017-Oct-02 12:55N 34°31' E 135°24'0 0.0
2017-Oct-02 12:25N 34°31' E 135°24'0 0.0
2017-Oct-02 11:31N 34°31' E 135°24'0 0.0
2017-Oct-02 11:19N 34°31' E 135°24'0 0.0
2017-Oct-02 10:37N 34°31' E 135°24'0 0.0
2017-Oct-02 10:13N 34°31' E 135°24'0 0.0
2017-Oct-01 07:38N 34°31' E 135°24'1 1.6
2017-Oct-01 07:17N 34°31' E 135°24'3 9.5
2017-Oct-01 06:59N 34°33' E 135°22'510.5
2017-Oct-01 06:30N 34°38' E 135°21'1 1.8
2017-Oct-01 05:42N 34°40' E 135°22'0 0.0
2017-Oct-01 05:30N 34°40' E 135°22'0 0.0
2017-Oct-01 05:00N 34°40' E 135°22'0 0.1
2017-Oct-01 04:30N 34°39' E 135°22'0 0.1
2017-Oct-01 04:00N 34°40' E 135°22'1 2.3
2017-Oct-01 03:30N 34°40' E 135°23'1 2.7
2017-Oct-01 02:59N 34°40' E 135°25'185 6.0
2017-Sep-29 20:24N 34°50' E 139°10'1711.3
2017-Sep-29 18:53N 34°60' E 139°26'410.2
2017-Sep-29 18:29N 35°02' E 139°31'510.2
2017-Sep-29 18:00N 35°05' E 139°36'611.8
2017-Sep-29 17:30N 35°08' E 139°42'612.0
2017-Sep-29 17:00N 35°13' E 139°46'611.4
2017-Sep-29 16:30N 35°18' E 139°44'611.0
2017-Sep-29 16:00N 35°23' E 139°42'611.1
2017-Sep-29 15:30N 35°27' E 139°47'4 8.0
2017-Sep-29 15:00N 35°31' E 139°46'0 0.5
2017-Sep-29 14:30N 35°32' E 139°46'0 0.0
2017-Sep-29 13:58N 35°32' E 139°46'0 0.0
2017-Sep-29 13:28N 35°32' E 139°46'0 0.0
2017-Sep-29 12:58N 35°32' E 139°46'0 0.0
2017-Sep-29 12:25N 35°32' E 139°46'0 0.0
2017-Sep-29 11:55N 35°32' E 139°46'0 0.0
2017-Sep-29 11:28N 35°32' E 139°46'0 0.0
2017-Sep-29 10:58N 35°32' E 139°46'0 0.0
2017-Sep-29 10:28N 35°32' E 139°46'0 0.0
2017-Sep-29 09:58N 35°32' E 139°46'0 0.0
2017-Sep-29 09:28N 35°32' E 139°46'0 0.0
2017-Sep-29 08:58N 35°32' E 139°46'0 0.0
2017-Sep-29 08:28N 35°32' E 139°46'0 0.0
2017-Sep-29 07:58N 35°32' E 139°46'0 0.0
2017-Sep-29 07:30N 35°32' E 139°46'3 5.3
2017-Sep-29 07:00N 35°30' E 139°48'510.8
2017-Sep-29 06:30N 35°24' E 139°46'510.6
2017-Sep-29 06:00N 35°19' E 139°44'510.0
2017-Sep-29 05:30N 35°15' E 139°47'  
Track history (hours):
 
Tides and Currents Weather Stations Pressure Air Temp Water Temp Dewpoint Dewpoint Depression Visibility Wind Speed Wind Dir Waves Ship Positions

Shinkyokuhoumaru

Last reported at 2017-Oct-09 05:18 UTC. Time now 2017-Oct-17 18:55 UTC.
Position N 34°05' E 135°03'.
Warning: this ship's position is 8 days out of date.

Length 52 m; draft 3 m.

Type: Tanker. MMSI: 430253169.

Date/timePositionNaut miles runAvg speedWind from/ knotsBaromVisibWave heightAir tempDewpointWater temp
2017-Oct-09 05:18N 34°05' E 135°03'311.4
2017-Oct-09 05:00N 34°09' E 135°03'510.8
2017-Oct-09 04:30N 34°14' E 135°03'1511.0
2017-Oct-09 03:07N 34°27' E 135°12'110.8
2017-Oct-09 02:59N 34°28' E 135°14'511.0
2017-Oct-09 02:30N 34°32' E 135°19'510.5
2017-Oct-09 02:00N 34°33' E 135°25'1 0.3
2017-Oct-08 22:28N 34°32' E 135°25'0 0.8
2017-Oct-08 21:58N 34°33' E 135°25'1 2.1
2017-Oct-08 21:30N 34°33' E 135°24'2 0.1
2017-Oct-08 00:07N 34°31' E 135°24'1 2.5
2017-Oct-07 23:54N 34°32' E 135°24'2 4.9
2017-Oct-07 23:31N 34°32' E 135°22'2 2.5
2017-Oct-07 22:44N 34°32' E 135°20'0 0.0
2017-Oct-07 22:08N 34°32' E 135°20'0 0.0
2017-Oct-07 21:44N 34°32' E 135°20'0 0.0
2017-Oct-07 21:20N 34°32' E 135°20'0 0.0
2017-Oct-07 20:56N 34°32' E 135°20'0 0.0
2017-Oct-07 20:26N 34°32' E 135°20'0 0.0
2017-Oct-07 19:50N 34°32' E 135°20'0 0.0
2017-Oct-07 19:26N 34°32' E 135°20'0 0.0
2017-Oct-07 18:56N 34°32' E 135°20'0 0.0
2017-Oct-07 18:26N 34°32' E 135°20'0 0.0
2017-Oct-07 17:56N 34°32' E 135°20'0 0.0
2017-Oct-07 17:20N 34°32' E 135°20'0 0.0
2017-Oct-07 16:56N 34°32' E 135°20'0 0.0
2017-Oct-07 16:25N 34°32' E 135°20'0 0.0
2017-Oct-07 15:49N 34°32' E 135°20'0 0.0
2017-Oct-07 15:25N 34°32' E 135°20'0 0.0
2017-Oct-07 14:55N 34°32' E 135°20'0 0.0
2017-Oct-07 14:25N 34°32' E 135°20'0 0.0
2017-Oct-07 13:55N 34°32' E 135°20'0 0.0
2017-Oct-07 13:25N 34°32' E 135°20'0 0.0
2017-Oct-07 12:01N 34°32' E 135°20'0 0.1
2017-Oct-07 11:55N 34°32' E 135°20'3 6.6
2017-Oct-07 11:30N 34°32' E 135°17'511.1
2017-Oct-07 11:00N 34°34' E 135°11'611.6
2017-Oct-07 10:30N 34°36' E 135°04'  
2017-Oct-04 23:32N 34°37' E 134°57'113.2
2017-Oct-04 23:26N 34°37' E 134°58'613.4
2017-Oct-04 23:00N 34°36' E 135°05'510.7
2017-Oct-04 22:29N 34°34' E 135°11'611.8
2017-Oct-04 22:00N 34°32' E 135°18'2 4.6
2017-Oct-04 21:30N 34°32' E 135°20'0 0.0
2017-Oct-04 21:00N 34°32' E 135°20'0 0.0
2017-Oct-04 20:29N 34°32' E 135°20'0 0.0
2017-Oct-04 20:00N 34°32' E 135°20'0 0.0
2017-Oct-04 19:29N 34°32' E 135°20'0 0.0
2017-Oct-04 19:00N 34°32' E 135°20'0 0.0
2017-Oct-04 18:30N 34°32' E 135°20'0 0.0
2017-Oct-04 18:00N 34°32' E 135°20'0 0.0
2017-Oct-04 17:30N 34°32' E 135°20'0 0.0
2017-Oct-04 17:00N 34°32' E 135°20'0 0.0
2017-Oct-04 16:30N 34°32' E 135°20'0 0.0
2017-Oct-04 16:00N 34°32' E 135°20'0 0.0
2017-Oct-04 15:30N 34°32' E 135°20'0 0.0
2017-Oct-04 15:00N 34°32' E 135°20'0 0.0
2017-Oct-04 14:30N 34°32' E 135°20'0 0.0
2017-Oct-04 14:00N 34°32' E 135°20'0 0.0
2017-Oct-04 13:30N 34°32' E 135°20'0 0.0
2017-Oct-04 13:00N 34°32' E 135°20'0 0.0
2017-Oct-04 12:30N 34°32' E 135°20'0 0.0
2017-Oct-04 12:00N 34°32' E 135°20'0 0.0
2017-Oct-04 11:30N 34°32' E 135°20'0 0.0
2017-Oct-04 11:00N 34°32' E 135°20'0 0.1
2017-Oct-04 10:30N 34°32' E 135°20'0 0.1
2017-Oct-04 10:00N 34°32' E 135°20'0 0.0
2017-Oct-04 09:30N 34°32' E 135°20'0 0.0
2017-Oct-04 09:00N 34°32' E 135°20'0 0.1
2017-Oct-04 08:30N 34°32' E 135°20'4 0.7
2017-Oct-04 03:47N 34°32' E 135°25'2 7.4
2017-Oct-04 03:30N 34°33' E 135°22'2 1.6
2017-Oct-04 02:18N 34°32' E 135°20'0 0.0
2017-Oct-04 02:00N 34°32' E 135°20'5 9.3
2017-Oct-04 01:28N 34°36' E 135°17'3 6.8
2017-Oct-04 01:00N 34°39' E 135°18'0 0.0
2017-Oct-04 00:27N 34°39' E 135°18'0 0.0
2017-Oct-03 23:39N 34°39' E 135°18'0 0.0
2017-Oct-03 23:27N 34°39' E 135°18'0 0.0
2017-Oct-03 22:57N 34°39' E 135°18'0 0.0
2017-Oct-03 22:15N 34°39' E 135°18'0 0.0
2017-Oct-03 21:52N 34°39' E 135°18'0 1.1
2017-Oct-03 21:29N 34°39' E 135°18'4 7.5
2017-Oct-03 21:00N 34°40' E 135°22'5 9.7
2017-Oct-03 20:28N 34°38' E 135°28'1 0.0
2017-Oct-03 01:03N 34°38' E 135°29'0 3.7
2017-Oct-03 00:57N 34°38' E 135°28'3 7.6
2017-Oct-03 00:30N 34°39' E 135°25'1 2.1
2017-Oct-03 00:00N 34°40' E 135°25'0 0.0
2017-Oct-02 23:30N 34°40' E 135°25'1 1.9
2017-Oct-02 23:00N 34°39' E 135°25'5 9.5
2017-Oct-02 22:30N 34°36' E 135°21'510.6
2017-Oct-02 22:00N 34°31' E 135°24'0 0.0
2017-Oct-02 13:43N 34°31' E 135°24'0 0.0
2017-Oct-02 13:19N 34°31' E 135°24'0 0.0
2017-Oct-02 12:55N 34°31' E 135°24'0 0.0
2017-Oct-02 12:25N 34°31' E 135°24'0 0.0
2017-Oct-02 11:31N 34°31' E 135°24'0 0.0
2017-Oct-02 11:19N 34°31' E 135°24'0 0.0
2017-Oct-02 10:37N 34°31' E 135°24'0 0.0
2017-Oct-02 10:13N 34°31' E 135°24'0 0.0
2017-Oct-01 07:38N 34°31' E 135°24'1 1.6
2017-Oct-01 07:17N 34°31' E 135°24'3 9.5
2017-Oct-01 06:59N 34°33' E 135°22'510.5
2017-Oct-01 06:30N 34°38' E 135°21'1 1.8
2017-Oct-01 05:42N 34°40' E 135°22'0 0.0
2017-Oct-01 05:30N 34°40' E 135°22'0 0.0
2017-Oct-01 05:00N 34°40' E 135°22'0 0.1
2017-Oct-01 04:30N 34°39' E 135°22'0 0.1
2017-Oct-01 04:00N 34°40' E 135°22'1 2.3
2017-Oct-01 03:30N 34°40' E 135°23'1 2.7
2017-Oct-01 02:59N 34°40' E 135°25'185 6.0
2017-Sep-29 20:24N 34°50' E 139°10'1711.3
2017-Sep-29 18:53N 34°60' E 139°26'410.2
2017-Sep-29 18:29N 35°02' E 139°31'510.2
2017-Sep-29 18:00N 35°05' E 139°36'611.8
2017-Sep-29 17:30N 35°08' E 139°42'612.0
2017-Sep-29 17:00N 35°13' E 139°46'611.4
2017-Sep-29 16:30N 35°18' E 139°44'611.0
2017-Sep-29 16:00N 35°23' E 139°42'611.1
2017-Sep-29 15:30N 35°27' E 139°47'4 8.0
2017-Sep-29 15:00N 35°31' E 139°46'0 0.5
2017-Sep-29 14:30N 35°32' E 139°46'0 0.0
2017-Sep-29 13:58N 35°32' E 139°46'0 0.0
2017-Sep-29 13:28N 35°32' E 139°46'0 0.0
2017-Sep-29 12:58N 35°32' E 139°46'0 0.0
2017-Sep-29 12:25N 35°32' E 139°46'0 0.0
2017-Sep-29 11:55N 35°32' E 139°46'0 0.0
2017-Sep-29 11:28N 35°32' E 139°46'0 0.0
2017-Sep-29 10:58N 35°32' E 139°46'0 0.0
2017-Sep-29 10:28N 35°32' E 139°46'0 0.0
2017-Sep-29 09:58N 35°32' E 139°46'0 0.0
2017-Sep-29 09:28N 35°32' E 139°46'0 0.0
2017-Sep-29 08:58N 35°32' E 139°46'0 0.0
2017-Sep-29 08:28N 35°32' E 139°46'0 0.0
2017-Sep-29 07:58N 35°32' E 139°46'0 0.0
2017-Sep-29 07:30N 35°32' E 139°46'3 5.3
2017-Sep-29 07:00N 35°30' E 139°48'510.8
2017-Sep-29 06:30N 35°24' E 139°46'510.6
2017-Sep-29 06:00N 35°19' E 139°44'510.0
2017-Sep-29 05:30N 35°15' E 139°47'  

Dump ship's entire track history